Westchester, IL

11:12 PM CDT on September 01, 2014 (GMT -0500)
Mr. Hammes's Weather | Change Station
CLOSE
Current Station
Personal Weather Station
Location: Westchester, IL
Elevation: 641 ft
Nearby Weather Stations

Elev 641 ft 41.85 °N, 87.87 °W | Updated 3 seconds ago

Mostly Cloudy
Mostly Cloudy
73.4 °F
Feels Like 75 °F
N
0.0
Wind Variable Wind from WNW
Gusts 0.0 mph

Today
High -- | Low -- °F
--% Chance of Precip.
Yesterday
High -- | Low -- °F
Precip. -- in
6:17 AM 7:24 PM
Waxing Crescent, 47% visible
Pressure 29.81 in
Visibility 10.0 miles
Clouds Scattered Clouds 3400 ft
Mostly Cloudy 5000 ft
Overcast 6500 ft
Heat Index 75 °F
Dew Point 64 °F
Humidity 72%
Rainfall 0.00 in
Snow Depth Not available.
UV 0 out of 12
Pollen 8.80 out of 12
Ozone Good
PM2.5 Good
Flu Activity Not available.
METAR KMDW 020351Z 26009KT 10SM SCT034 BKN050 OVC065 25/19 A2984 RMK AO2 SLP095 T02500194 $

More Conditions Fewer Conditions

Pressure 29.81 in
Visibility 10.0 miles
Clouds Scattered Clouds 3400 ft
Mostly Cloudy 5000 ft
Overcast 6500 ft
Heat Index 75 °F
Dew Point 64 °F
Humidity 72%
Rainfall 0.00 in
Snow Depth Not available.
UV 0 out of 12
Pollen 8.80 out of 12
Ozone Good
PM2.5 Good
Flu Activity Not available.
METAR KMDW 020351Z 26009KT 10SM SCT034 BKN050 OVC065 25/19 A2984 RMK AO2 SLP095 T02500194 $

More Conditions Fewer Conditions

10-Day Weather Forecast

Almanac

Astronomy

Sep. 01, 2014 Rise Set
Actual Time 6:17 AM CDT 7:24 PM CDT
Civil Twilight 5:48 AM CDT 7:53 PM CDT
Nautical Twilight 5:14 AM CDT 8:27 PM CDT
Astronomical Twilight 4:38 AM CDT 9:03 PM CDT
Moon 1:08 PM CDT (9/1) 11:19 PM CDT (9/1)
Length of Visible Light 14h 04m
Length of Day
13h 07m
Tomorrow will be 2m 42s shorter.
Waxing Crescent, 47% of the Moon is Illuminated
Sep 2
Waxing Crescent
Sep 2
First Quarter
Sep 8
Full
Sep 15
Last Quarter
Sep 24
New

Today's Extremes

State Highs State Lows

Community

WunderPhotos

Upload Photos

1,749,560 photos uploaded!

WunderBlogs® & News

Nearby

Air Quality

  Air Quality AQ Index Pollutant
Yesterday Moderate
PM2.5
Yesterday Good
OZONE
Current Good
PM2.5
Current Good
OZONE
Monday Moderate
PM2.5
Monday Good
OZONE
Tuesday Good
OZONE
Tuesday Good
PM2.5

Snow Depth

Station Depth Elevation
No new snow has been reported.

Earthquake Activity

City Distance Mag. Time & Date
No recent earthquake activity has been reported nearby.
Minimum magnitude displayed is 2.5.

Coastal Water Temperatures

Place Temperature
No Stations Reporting

Nearby Weather Stations